Ashboro, Indiana
Current Conditions -  °F | °C
As of 10:53 PM on Thursday 20 Nov 2014 (Local Time) from KHUF Reporting Station
Clear Clear  
Wind Chill: 18°   Ceiling: Unl
Heat Index: 25°   Visibility: 10mi
Dew Point: 17°   Wind: 6mph
Humidity: 72%   Direction: 280°W
Pressure: 30.3"   Gusts: NA
Location:  39.3787°N, 87.0992°W
Report Text: KHUF 210353Z 28005KT 10SM CLR M04/M08 A3030 RMK AO2 SLP266 T10391083
Loading
Personal Weather Stations






























Interactive Weather Map New forecast layout! Learn more

10-Day Weather Forecast

Advertisements
Track Severe Weather on mobile